Time;durP1;ratioP1;P1;durP2;ratioP2;P2;SDS_P1;SDS_P2;PMS_P1;PMS_P2;Temp;Humidity;BMP_temperature;BMP_pressure;BME280_temperature;BME280_humidity;BME280_pressure;Samples;Min_cycle;Max_cycle;Signal;HPM_P1;HPM_P2
2021/04/22 00:02:43;;;;;;;;;29.40;26.40;;;;;17.89;40.78;98421.72;6175543;28;126221;-66
2021/04/22 00:05:50;;;;;;;;;31.60;30.00;;;;;17.93;40.71;98425.53;6186874;28;127258;-67
2021/04/22 00:08:52;;;;;;;;;33.00;30.00;;;;;17.92;40.88;98420.34;6190802;28;125899;-65
2021/04/22 00:11:54;;;;;;;;;30.20;27.20;;;;;17.79;41.03;98419.03;6185428;28;127259;-65
2021/04/22 00:14:57;;;;;;;;;30.00;27.00;;;;;17.76;41.11;98414.16;6191031;28;127443;-65
2021/04/22 00:18:00;;;;;;;;;29.75;28.75;;;;;17.69;41.54;98419.09;6181656;28;125732;-66
2021/04/22 00:21:02;;;;;;;;;30.40;27.60;;;;;17.64;41.75;98430.03;6187057;28;127073;-65
2021/04/22 00:24:06;;;;;;;;;30.60;27.60;;;;;17.64;41.74;98427.28;6193660;28;127595;-65
2021/04/22 00:27:08;;;;;;;;;27.33;26.00;;;;;17.65;41.63;98429.72;6186825;28;125972;-65
2021/04/22 00:30:14;;;;;;;;;33.20;28.20;;;;;17.59;41.88;98432.75;6193976;28;126322;-65
2021/04/22 00:33:21;;;;;;;;;30.00;28.40;;;;;17.48;42.24;98431.13;6186952;28;127719;-65
2021/04/22 00:36:23;;;;;;;;;30.20;29.00;;;;;17.33;42.75;98427.34;6173689;28;126026;-64
2021/04/22 00:39:34;;;;;;;;;32.00;29.20;;;;;17.22;43.08;98428.47;6187414;28;125924;-65
2021/04/22 00:42:36;;;;;;;;;27.00;27.00;;;;;17.12;43.39;98423.03;6187279;28;126452;-65
2021/04/22 00:45:42;;;;;;;;;32.00;30.00;;;;;17.11;43.24;98424.13;6185467;28;126243;-65
2021/04/22 00:48:45;;;;;;;;;30.40;29.00;;;;;17.08;43.49;98426.59;6170257;28;123810;-65
2021/04/22 00:51:48;;;;;;;;;32.80;29.20;;;;;17.05;43.38;98430.69;6177757;28;126485;-65
2021/04/22 00:54:50;;;;;;;;;32.00;30.00;;;;;17.03;43.44;98435.56;6173633;28;127413;-65
2021/04/22 00:57:53;;;;;;;;;34.60;31.00;;;;;16.90;43.50;98433.41;6189554;28;127057;-67
2021/04/22 01:00:58;;;;;;;;;36.80;32.00;;;;;16.81;43.51;98422.25;6196468;28;126382;-65
2021/04/22 01:04:01;;;;;;;;;35.00;31.60;;;;;16.88;43.48;98422.78;6168454;28;125933;-65
2021/04/22 01:07:03;;;;;;;;;34.00;30.40;;;;;16.52;43.67;98390.41;6187762;28;125816;-65
2021/04/22 01:10:07;;;;;;;;;33.80;30.20;;;;;16.82;43.66;98423.88;6172850;28;127586;-65
2021/04/22 01:13:09;;;;;;;;;33.25;30.00;;;;;16.78;43.65;98417.34;6172860;28;125722;-65
2021/04/22 01:16:12;;;;;;;;;35.00;30.40;;;;;16.77;43.53;98414.91;6186138;28;126276;-65
2021/04/22 01:19:15;;;;;;;;;36.75;32.00;;;;;16.86;43.33;98424.97;6186122;28;126649;-66
2021/04/22 01:22:18;;;;;;;;;36.80;33.00;;;;;16.84;43.41;98426.34;6184303;28;126576;-65
2021/04/22 01:25:23;;;;;;;;;40.40;34.40;;;;;16.88;43.06;98430.97;6166444;28;126172;-65
2021/04/22 01:28:27;;;;;;;;;44.20;35.20;;;;;16.82;43.11;98423.88;6174042;28;126259;-65
2021/04/22 01:31:29;;;;;;;;;42.40;35.00;;;;;16.84;43.19;98429.06;6194818;28;126566;-65
2021/04/22 01:34:32;;;;;;;;;45.00;37.00;;;;;16.82;43.07;98433.94;6176050;28;126665;-65
2021/04/22 01:37:36;;;;;;;;;43.00;35.00;;;;;16.77;43.22;98442.94;6185277;28;126212;-65
2021/04/22 01:40:39;;;;;;;;;45.00;36.25;;;;;16.76;43.33;98444.03;6152982;28;124995;-65
2021/04/22 01:43:41;;;;;;;;;45.00;38.00;;;;;16.78;43.48;98435.59;6155481;28;124447;-65
2021/04/22 01:46:44;;;;;;;;;49.00;38.40;;;;;16.76;43.75;98435.06;6183334;28;126430;-65
2021/04/22 01:49:46;;;;;;;;;49.80;39.00;;;;;16.68;43.86;98439.13;6191416;28;126381;-65
2021/04/22 01:52:50;;;;;;;;;48.00;39.00;;;;;16.73;43.91;98435.59;6185034;28;126194;-66
2021/04/22 01:55:52;;;;;;;;;45.00;38.00;;;;;16.84;43.81;98439.94;6190124;28;124117;-65
2021/04/22 01:58:54;;;;;;;;;43.00;36.20;;;;;16.85;43.81;98444.31;6183888;28;125565;-65
2021/04/22 02:01:58;;;;;;;;;47.40;38.40;;;;;16.91;43.71;98428.78;6170779;28;97027;-65
2021/04/22 02:05:00;;;;;;;;;46.75;37.25;;;;;16.96;43.64;98420.63;6148690;28;122765;-65
2021/04/22 02:08:03;;;;;;;;;47.00;39.00;;;;;16.82;43.81;98406.72;6190876;28;125202;-65
2021/04/22 02:11:06;;;;;;;;;45.40;38.00;;;;;16.90;43.79;98419.81;6174215;28;124955;-65
2021/04/22 02:14:08;;;;;;;;;47.00;39.00;;;;;16.83;43.80;98422.78;6183872;28;127307;-65
2021/04/22 02:17:10;;;;;;;;;45.00;36.00;;;;;16.89;43.59;98423.63;6186025;28;125114;-65
2021/04/22 02:20:15;;;;;;;;;45.00;36.00;;;;;16.83;43.76;98420.06;6185284;28;128280;-65
2021/04/22 02:23:22;;;;;;;;;45.40;36.00;;;;;16.78;43.60;98421.97;6184889;28;124345;-65
2021/04/22 02:26:24;;;;;;;;;42.80;36.00;;;;;16.84;43.97;98423.63;6166281;28;127519;-66
2021/04/22 02:29:26;;;;;;;;;47.00;37.00;;;;;16.78;44.14;98416.53;6164692;28;126029;-67
2021/04/22 02:32:28;;;;;;;;;48.40;38.40;;;;;16.72;44.55;98409.44;6180298;28;127933;-66
2021/04/22 02:35:32;;;;;;;;;46.40;38.00;;;;;16.78;44.70;98427.44;6182960;28;126338;-66
2021/04/22 02:38:35;;;;;;;;;44.00;36.00;;;;;16.67;45.00;98439.38;6166106;28;123731;-66
2021/04/22 02:41:37;;;;;;;;;41.20;35.00;;;;;16.55;45.33;98414.34;6191009;28;125792;-66
2021/04/22 02:44:40;;;;;;;;;45.00;37.00;;;;;16.69;45.54;98432.59;6184132;28;128284;-67
2021/04/22 02:47:42;;;;;;;;;44.80;36.20;;;;;16.71;46.47;98416.78;6185030;28;125819;-67
2021/04/22 02:50:46;;;;;;;;;49.00;39.00;;;;;16.76;46.61;98413.28;6182617;28;125771;-67
2021/04/22 02:53:49;;;;;;;;;43.00;35.00;;;;;16.72;46.51;98410.28;6193157;28;126009;-65
2021/04/22 02:56:51;;;;;;;;;46.60;37.00;;;;;16.67;46.64;98409.44;6190314;28;126064;-65
2021/04/22 02:59:53;;;;;;;;;40.80;33.80;;;;;16.57;46.97;98398.53;6188340;28;126390;-65
2021/04/22 03:02:55;;;;;;;;;43.00;34.40;;;;;16.52;46.91;98384.97;6166595;28;127766;-65
2021/04/22 03:05:59;;;;;;;;;40.40;35.00;;;;;16.48;47.24;98382.75;6165517;28;124978;-66
2021/04/22 03:09:04;;;;;;;;;40.40;33.00;;;;;16.37;47.16;98364.00;6194950;28;125085;-66
2021/04/22 03:12:07;;;;;;;;;35.20;32.60;;;;;16.47;47.17;98372.97;6190803;28;124695;-66
2021/04/22 03:15:11;;;;;;;;;40.50;33.00;;;;;16.31;47.34;98368.63;6184698;28;124827;-66
2021/04/22 03:18:13;;;;;;;;;39.60;32.60;;;;;16.30;47.42;98379.75;6198552;28;126184;-66
2021/04/22 03:21:15;;;;;;;;;40.00;33.80;;;;;16.28;47.60;98385.47;6184272;28;127842;-66
2021/04/22 03:24:18;;;;;;;;;40.00;34.60;;;;;16.25;47.73;98385.19;6182971;28;126177;-66
2021/04/22 03:27:21;;;;;;;;;40.60;35.60;;;;;16.26;47.45;98384.94;6168305;28;125033;-66
2021/04/22 03:30:25;;;;;;;;;38.00;32.00;;;;;16.32;47.47;98386.56;6179938;28;126224;-66
2021/04/22 03:33:27;;;;;;;;;38.75;33.00;;;;;16.39;47.34;98384.41;6188006;28;126564;-65
2021/04/22 03:36:29;;;;;;;;;41.00;33.00;;;;;16.37;47.07;98389.28;6187478;28;127243;-65
2021/04/22 03:39:32;;;;;;;;;36.25;32.00;;;;;16.40;46.83;98394.19;6190530;28;127565;-65
2021/04/22 03:42:35;;;;;;;;;35.20;32.60;;;;;16.43;46.75;98395.53;6172055;28;125958;-66
2021/04/22 03:45:38;;;;;;;;;40.00;33.00;;;;;16.45;46.65;98399.63;6189024;28;128322;-66
2021/04/22 03:48:40;;;;;;;;;41.80;33.80;;;;;16.46;46.56;98400.47;6188071;28;126467;-65
2021/04/22 03:51:43;;;;;;;;;37.40;32.80;;;;;16.43;46.22;98399.09;6188457;28;126220;-66
2021/04/22 03:54:46;;;;;;;;;38.20;32.60;;;;;16.30;46.21;98363.44;6172912;28;126373;-66
2021/04/22 03:57:49;;;;;;;;;37.25;32.25;;;;;16.43;46.34;98381.94;6154052;28;124908;-66
2021/04/22 04:00:52;;;;;;;;;37.00;32.00;;;;;16.44;46.48;98389.03;6187280;28;127449;-66
2021/04/22 04:03:55;;;;;;;;;35.80;30.80;;;;;16.43;46.29;98388.19;6188467;28;127879;-66
2021/04/22 04:06:57;;;;;;;;;34.50;31.75;;;;;16.39;46.08;98392.56;6171754;28;127780;-66
2021/04/22 04:10:00;;;;;;;;;36.00;31.20;;;;;16.36;46.43;98390.38;6162734;28;125554;-66
2021/04/22 04:13:02;;;;;;;;;35.50;31.25;;;;;16.31;46.53;98403.16;6186693;28;125993;-66
2021/04/22 04:16:05;;;;;;;;;37.00;32.00;;;;;16.30;46.46;98401.53;6162860;28;125358;-66
2021/04/22 04:19:07;;;;;;;;;35.00;32.00;;;;;16.22;46.67;98407.50;6190626;28;124868;-66
2021/04/22 04:22:10;;;;;;;;;30.25;29.00;;;;;16.25;46.74;98409.69;6169157;28;127445;-66
2021/04/22 04:25:14;;;;;;;;;34.20;30.20;;;;;16.20;46.86;98407.78;6182311;28;128230;-66
2021/04/22 04:28:17;;;;;;;;;33.25;29.75;;;;;16.25;46.50;98415.13;6172059;28;126233;-67
2021/04/22 04:31:19;;;;;;;;;32.00;30.00;;;;;16.30;46.71;98417.84;6200395;28;126339;-66
2021/04/22 04:34:21;;;;;;;;;29.00;27.60;;;;;16.29;46.54;98424.38;6188177;28;125498;-65
2021/04/22 04:37:24;;;;;;;;;26.80;25.80;;;;;16.36;46.16;98427.66;6187085;28;126354;-66
2021/04/22 04:40:27;;;;;;;;;28.80;26.40;;;;;16.44;46.06;98429.84;6203255;28;125668;-65
2021/04/22 04:43:29;;;;;;;;;26.40;25.00;;;;;16.53;45.96;98441.00;6186741;28;125035;-66
2021/04/22 04:46:31;;;;;;;;;26.00;24.00;;;;;16.55;45.85;98434.19;6184782;28;125271;-67
2021/04/22 04:49:34;;;;;;;;;28.33;26.00;;;;;16.65;45.75;98436.97;6184540;28;125793;-66
2021/04/22 04:52:36;;;;;;;;;26.60;24.60;;;;;16.73;45.52;98447.28;6167435;28;125525;-66
2021/04/22 04:55:39;;;;;;;;;26.80;24.00;;;;;16.77;45.41;98450.28;6172413;28;126479;-65
2021/04/22 04:58:41;;;;;;;;;27.80;25.00;;;;;16.88;45.53;98460.91;6185900;28;127380;-66
2021/04/22 05:01:44;;;;;;;;;26.75;26.25;;;;;17.02;45.96;98469.34;6169310;28;125443;-66
2021/04/22 05:04:46;;;;;;;;;30.00;29.00;;;;;17.16;45.77;98470.41;6192052;28;127347;-66
2021/04/22 05:07:48;;;;;;;;;38.00;32.50;;;;;17.25;45.17;98459.81;6187628;28;127572;-66
2021/04/22 05:10:51;;;;;;;;;32.60;30.00;;;;;17.29;45.11;98461.69;6180275;28;125341;-66
2021/04/22 05:13:53;;;;;;;;;33.40;30.00;;;;;17.39;45.10;98460.88;6186038;28;126286;-65
2021/04/22 05:16:56;;;;;;;;;32.00;30.00;;;;;17.45;45.17;98458.91;6200483;28;126476;-65
2021/04/22 05:19:58;;;;;;;;;36.40;32.00;;;;;17.52;44.82;98463.00;6193749;28;126713;-66
2021/04/22 05:23:01;;;;;;;;;33.00;30.00;;;;;17.45;44.57;98473.34;6193016;28;126313;-66
2021/04/22 05:26:04;;;;;;;;;33.00;30.00;;;;;17.48;44.64;98474.72;6210631;28;126502;-66
2021/04/22 05:29:06;;;;;;;;;33.75;30.00;;;;;17.54;44.53;98481.81;6197006;28;127280;-66
2021/04/22 05:32:09;;;;;;;;;28.60;27.00;;;;;17.52;44.66;98486.72;6169302;28;126281;-66
2021/04/22 05:35:13;;;;;;;;;33.20;30.00;;;;;17.53;44.33;98486.44;6186556;28;127284;-66
2021/04/22 05:38:26;;;;;;;;;30.60;29.60;;;;;17.54;44.27;98490.00;6194005;28;124775;-66
2021/04/22 05:41:29;;;;;;;;;33.00;30.00;;;;;17.55;44.60;98492.41;6199731;28;126438;-66
2021/04/22 05:44:31;;;;;;;;;33.40;30.00;;;;;17.62;43.90;98494.91;6186325;28;125603;-66
2021/04/22 05:47:34;;;;;;;;;35.00;32.00;;;;;17.67;43.68;98498.44;6183396;28;125575;-65
2021/04/22 05:50:36;;;;;;;;;35.60;30.20;;;;;17.70;43.60;98500.59;6163909;28;127440;-66
2021/04/22 05:53:38;;;;;;;;;33.00;30.00;;;;;17.81;43.17;98501.38;6188544;28;125039;-65
2021/04/22 05:56:41;;;;;;;;;35.00;32.00;;;;;18.01;43.36;98509.50;6177960;28;125637;-66
2021/04/22 05:59:43;;;;;;;;;37.25;33.00;;;;;18.29;41.98;98504.44;6186034;28;126221;-65
2021/04/22 06:02:45;;;;;;;;;36.60;33.00;;;;;18.56;41.40;98518.53;6185156;28;127644;-65
2021/04/22 06:05:48;;;;;;;;;40.80;33.20;;;;;18.58;41.48;98516.31;6167823;28;125395;-64
2021/04/22 06:08:50;;;;;;;;;39.00;33.00;;;;;18.48;41.34;98519.88;6186310;28;125608;-64
2021/04/22 06:11:53;;;;;;;;;39.60;34.00;;;;;18.50;40.67;98522.34;6184000;28;127403;-65
2021/04/22 06:14:55;;;;;;;;;38.40;33.00;;;;;18.67;40.68;98520.06;6174422;28;124872;-66
2021/04/22 06:17:58;;;;;;;;;42.80;35.00;;;;;18.81;40.87;98534.75;6172817;28;125281;-66
2021/04/22 06:21:01;;;;;;;;;39.20;33.00;;;;;18.75;40.25;98524.13;6181023;28;124588;-65
2021/04/22 06:24:04;;;;;;;;;42.25;35.00;;;;;18.87;39.85;98524.59;6172854;28;126190;-65
2021/04/22 06:27:07;;;;;;;;;39.00;34.60;;;;;18.97;40.69;98533.53;6173079;28;126381;-65
2021/04/22 06:30:11;;;;;;;;;43.00;35.00;;;;;19.12;39.85;98526.31;6159409;28;125686;-65
2021/04/22 06:33:13;;;;;;;;;41.00;34.60;;;;;19.18;39.93;98528.72;6160626;28;125997;-65
2021/04/22 06:36:17;;;;;;;;;39.67;33.00;;;;;19.38;38.68;98533.19;6163464;28;126335;-65
2021/04/22 06:39:19;;;;;;;;;35.25;32.00;;;;;19.51;37.59;98535.28;6173670;28;124737;-65
2021/04/22 06:42:22;;;;;;;;;39.00;32.50;;;;;19.77;36.88;98538.59;6164427;28;126471;-65
2021/04/22 06:45:25;;;;;;;;;41.50;35.00;;;;;19.96;37.31;98531.25;6159339;28;126150;-65
2021/04/22 06:48:27;;;;;;;;;37.00;32.00;;;;;20.02;38.39;98545.69;6166984;28;125523;-64
2021/04/22 06:51:29;;;;;;;;;39.80;33.00;;;;;20.25;37.29;98540.22;6150409;28;124363;-66
2021/04/22 06:54:31;;;;;;;;;37.00;32.00;;;;;20.52;36.80;98553.31;6184547;28;127451;-65
2021/04/22 06:57:35;;;;;;;;;41.40;33.60;;;;;20.66;36.37;98540.53;6184977;28;126396;-63
2021/04/22 07:00:39;;;;;;;;;37.40;33.00;;;;;20.67;35.91;98547.59;6188808;28;126819;-63
2021/04/22 07:03:42;;;;;;;;;37.50;33.25;;;;;20.73;36.50;98551.09;6192180;28;126018;-63
2021/04/22 07:06:46;;;;;;;;;42.40;35.40;;;;;20.65;35.88;98562.72;6174714;28;124359;-64
2021/04/22 07:09:48;;;;;;;;;38.40;33.00;;;;;20.62;36.29;98568.81;6193303;28;127472;-68
2021/04/22 07:12:52;;;;;;;;;39.40;33.40;;;;;20.56;36.51;98573.53;6192321;28;126435;-65
2021/04/22 07:15:54;;;;;;;;;41.40;34.60;;;;;20.56;36.42;98589.97;6192557;28;127152;-65
2021/04/22 07:18:58;;;;;;;;;40.80;33.80;;;;;20.63;36.34;98593.13;6191849;28;124552;-66
2021/04/22 07:22:01;;;;;;;;;38.00;33.33;;;;;20.26;35.62;98593.84;6174970;28;125079;-65
2021/04/22 07:25:03;;;;;;;;;41.00;34.50;;;;;20.03;36.48;98594.69;6192695;28;126848;-66
2021/04/22 07:28:08;;;;;;;;;43.00;35.00;;;;;20.02;36.90;98600.44;6175595;28;127286;-65
2021/04/22 07:31:10;;;;;;;;;38.00;33.00;;;;;19.93;36.89;98599.44;6190095;28;124795;-65
2021/04/22 07:34:13;;;;;;;;;43.00;34.80;;;;;19.74;36.83;98613.03;6185801;28;126676;-65
2021/04/22 07:37:17;;;;;;;;;39.00;34.40;;;;;19.54;37.36;98621.41;6173765;28;124779;-65
2021/04/22 07:40:21;;;;;;;;;41.40;34.60;;;;;19.28;38.09;98616.09;6169642;28;124759;-65
2021/04/22 07:43:24;;;;;;;;;41.40;35.00;;;;;19.01;38.23;98605.63;6189006;28;124786;-65
2021/04/22 07:46:26;;;;;;;;;43.60;36.00;;;;;18.80;38.55;98619.69;6187769;28;125189;-65
2021/04/22 07:49:28;;;;;;;;;42.00;35.00;;;;;18.48;38.94;98617.34;6172830;28;126951;-66
2021/04/22 07:52:31;;;;;;;;;47.75;37.25;;;;;18.39;39.59;98619.84;6182633;28;126044;-65
2021/04/22 07:55:37;;;;;;;;;43.60;36.00;;;;;18.26;39.81;98625.06;6175241;28;125509;-65
2021/04/22 07:58:40;;;;;;;;;47.00;38.00;;;;;18.12;40.22;98630.31;6185669;28;126168;-65
2021/04/22 08:01:43;;;;;;;;;46.60;37.40;;;;;17.98;40.52;98640.97;6188041;28;125484;-65
2021/04/22 08:04:45;;;;;;;;;46.50;38.00;;;;;17.91;40.41;98642.34;6188564;28;126180;-65
2021/04/22 08:07:48;;;;;;;;;44.60;36.00;;;;;17.75;40.65;98644.25;6187946;28;126117;-64
2021/04/22 08:10:52;;;;;;;;;49.25;38.00;;;;;17.63;41.27;98644.56;6143914;28;123976;-65
2021/04/22 08:13:55;;;;;;;;;44.40;35.40;;;;;17.68;41.37;98655.47;6151362;28;123580;-66
2021/04/22 08:16:57;;;;;;;;;45.00;36.20;;;;;17.44;41.42;98659.78;6164070;28;126181;-65
2021/04/22 08:20:05;;;;;;;;;45.25;36.50;;;;;17.38;41.71;98666.31;6183494;28;126089;-65
2021/04/22 08:23:09;;;;;;;;;45.40;36.00;;;;;17.46;41.53;98665.78;6176318;28;127103;-64
2021/04/22 08:26:16;;;;;;;;;40.75;34.00;;;;;17.45;40.57;98661.41;6176933;28;125873;-66
2021/04/22 08:29:19;;;;;;;;;37.00;32.00;;;;;17.57;40.48;98669.31;6159315;28;123609;-65
2021/04/22 08:32:21;;;;;;;;;38.40;33.80;;;;;17.64;40.41;98673.44;6152580;28;127161;-66
2021/04/22 08:35:24;;;;;;;;;42.00;35.00;;;;;17.51;40.31;98671.22;6158279;28;125227;-65
2021/04/22 08:38:26;;;;;;;;;39.60;34.40;;;;;17.37;40.58;98670.13;6158208;28;127266;-64
2021/04/22 08:41:29;;;;;;;;;44.60;36.00;;;;;17.32;41.20;98670.13;6185470;28;125551;-64
2021/04/22 08:44:32;;;;;;;;;38.60;34.00;;;;;17.31;41.55;98679.38;6164962;28;125155;-64
2021/04/22 08:47:35;;;;;;;;;45.00;36.00;;;;;17.13;42.16;98682.63;6176549;28;126118;-65
2021/04/22 08:50:39;;;;;;;;;27.60;26.00;;;;;17.19;41.51;98706.06;6176671;28;126316;-65
2021/04/22 08:53:46;;;;;;;;;29.00;24.00;;;;;17.08;41.00;98713.38;6179193;28;127236;-65
2021/04/22 08:56:49;;;;;;;;;24.00;22.00;;;;;16.91;41.37;98726.38;6183295;28;127231;-65
2021/04/22 08:59:53;;;;;;;;;19.60;18.20;;;;;16.63;41.19;98737.69;6177136;28;127407;-65
2021/04/22 09:02:55;;;;;;;;;19.60;17.40;;;;;16.48;41.08;98750.09;6167476;28;126036;-65
2021/04/22 09:05:58;;;;;;;;;18.00;17.00;;;;;16.25;41.55;98753.22;6179195;28;127373;-65
2021/04/22 09:09:01;;;;;;;;;19.00;15.50;;;;;15.99;42.26;98763.09;6170856;28;124997;-65
2021/04/22 09:12:14;;;;;;;;;15.80;14.80;;;;;15.96;42.84;98762.78;6157154;28;125369;-64
2021/04/22 09:15:20;;;;;;;;;14.00;14.00;;;;;15.80;42.70;98774.59;6168197;28;125340;-66
2021/04/22 09:18:22;;;;;;;;;14.00;12.00;;;;;15.68;42.19;98773.97;6163153;28;127195;-65
2021/04/22 09:21:26;;;;;;;;;10.75;10.75;;;;;15.39;42.56;98784.25;6169731;28;125138;-66
2021/04/22 09:24:28;;;;;;;;;8.40;8.40;;;;;15.43;42.67;98790.78;6167807;28;126058;-66
2021/04/22 09:27:32;;;;;;;;;10.00;10.00;;;;;15.27;42.57;98792.50;6164158;28;125373;-64
2021/04/22 09:30:40;;;;;;;;;9.00;8.25;;;;;15.14;42.63;98804.59;6179107;28;127062;-66
2021/04/22 09:33:42;;;;;;;;;11.00;10.00;;;;;15.01;43.81;98815.81;6183476;28;126204;-67
2021/04/22 09:36:48;;;;;;;;;10.00;9.00;;;;;14.84;44.31;98815.06;6172741;28;124017;-67
2021/04/22 09:39:51;;;;;;;;;9.25;8.75;;;;;14.81;44.57;98820.19;6148918;28;123882;-66
2021/04/22 09:42:55;;;;;;;;;10.00;9.75;;;;;14.71;45.30;98820.81;6180522;28;125028;-67
2021/04/22 09:45:58;;;;;;;;;11.50;11.00;;;;;14.74;45.86;98821.16;6138440;28;124071;-67
2021/04/22 09:49:08;;;;;;;;;12.00;11.00;;;;;14.57;46.15;98803.25;6178473;28;124895;-68
2021/04/22 09:52:11;;;;;;;;;12.40;10.40;;;;;14.60;45.54;98822.59;6146497;28;125561;-67
2021/04/22 09:55:15;;;;;;;;;10.00;8.00;;;;;14.66;45.79;98829.72;6177833;28;125938;-69
2021/04/22 09:58:26;;;;;;;;;7.00;6.80;;;;;14.68;45.35;98819.44;6179428;28;124675;-67
2021/04/22 10:01:32;;;;;;;;;8.40;8.00;;;;;14.56;45.20;98829.56;6182418;28;125827;-68
2021/04/22 10:04:37;;;;;;;;;7.60;7.00;;;;;14.23;45.34;98791.59;6162538;28;124845;-67
2021/04/22 10:07:39;;;;;;;;;6.40;6.40;;;;;14.33;45.54;98824.31;6158616;28;125762;-67
2021/04/22 10:10:44;;;;;;;;;7.00;7.00;;;;;14.38;45.82;98837.97;6173869;28;128543;-69
2021/04/22 10:13:50;;;;;;;;;10.00;9.00;;;;;14.42;45.91;98841.00;6182168;28;124824;-67
2021/04/22 10:16:54;;;;;;;;;9.00;8.00;;;;;14.39;46.20;98842.34;6155998;28;123844;-66
2021/04/22 10:19:59;;;;;;;;;9.50;9.00;;;;;14.33;45.70;98844.09;6150736;28;126155;-67
2021/04/22 10:23:02;;;;;;;;;9.00;9.00;;;;;14.38;45.61;98831.72;6155885;28;124513;-66
2021/04/22 10:26:04;;;;;;;;;9.00;8.00;;;;;14.44;44.85;98820.72;6159758;28;125299;-66
2021/04/22 10:29:07;;;;;;;;;9.00;9.00;;;;;14.48;44.63;98823.75;6181908;28;126738;-66
2021/04/22 10:32:10;;;;;;;;;9.20;9.00;;;;;14.56;45.44;98826.84;6174117;28;125982;-67
2021/04/22 10:35:15;;;;;;;;;9.60;8.60;;;;;14.56;45.47;98820.63;6174721;28;124281;-68
2021/04/22 10:38:18;;;;;;;;;9.25;8.75;;;;;14.58;46.04;98811.16;6182757;28;123770;-68
2021/04/22 10:41:21;;;;;;;;;10.00;9.80;;;;;14.72;45.21;98806.19;6182224;28;127306;-68
2021/04/22 10:44:24;;;;;;;;;12.20;10.80;;;;;14.77;45.66;98811.69;6179646;28;124587;-67
2021/04/22 10:47:29;;;;;;;;;14.00;14.00;;;;;14.82;45.09;98819.09;6160807;28;124217;-65
2021/04/22 10:50:35;;;;;;;;;13.00;13.00;;;;;14.73;44.31;98832.25;6175612;28;125873;-66
2021/04/22 10:53:39;;;;;;;;;14.00;12.00;;;;;14.64;45.09;98837.31;6161765;28;126338;-65
2021/04/22 10:56:45;;;;;;;;;13.00;12.60;;;;;14.62;45.46;98816.91;6178649;28;126688;-66
2021/04/22 10:59:59;;;;;;;;;13.00;13.00;;;;;14.52;45.07;98823.00;6178181;28;127048;-66
2021/04/22 11:03:23;;;;;;;;;11.50;10.75;;;;;14.43;44.88;98829.91;6182782;28;124248;-66
2021/04/22 11:06:33;;;;;;;;;13.00;12.00;;;;;14.46;45.59;98836.75;6187236;28;126055;-65
2021/04/22 11:09:36;;;;;;;;;15.20;13.20;;;;;14.51;44.83;98845.78;6155568;28;124976;-67
2021/04/22 11:12:38;;;;;;;;;11.75;11.00;;;;;14.59;44.68;98849.97;6166780;28;127523;-66
2021/04/22 11:15:45;;;;;;;;;12.40;11.40;;;;;14.49;44.84;98820.78;6174210;28;128786;-65
2021/04/22 11:18:49;;;;;;;;;15.80;13.80;;;;;14.55;45.46;98840.69;6182922;28;125920;-66
2021/04/22 11:21:55;;;;;;;;;18.00;17.00;;;;;14.45;44.89;98814.22;6175074;28;124750;-67
2021/04/22 11:24:59;;;;;;;;;20.40;18.00;;;;;14.88;44.72;98831.66;6167762;28;126820;-66
2021/04/22 11:28:06;;;;;;;;;20.00;19.00;;;;;15.09;44.68;98828.97;6178842;28;124440;-65
2021/04/22 11:31:11;;;;;;;;;22.00;21.00;;;;;15.22;43.56;98848.66;6164962;28;125094;-65
2021/04/22 11:34:14;;;;;;;;;17.80;16.80;;;;;15.32;43.08;98827.88;6173138;28;124800;-64
2021/04/22 11:37:19;;;;;;;;;19.75;17.00;;;;;15.33;43.58;98828.72;6146342;28;125715;-65
2021/04/22 11:40:23;;;;;;;;;23.00;21.00;;;;;15.08;43.34;98838.19;6177905;28;123980;-65
2021/04/22 11:43:29;;;;;;;;;22.00;20.00;;;;;14.97;43.81;98841.00;6169100;28;123710;-66
2021/04/22 11:46:40;;;;;;;;;20.40;19.00;;;;;14.90;43.73;98845.81;6195396;28;124906;-65
2021/04/22 11:49:43;;;;;;;;;22.80;20.80;;;;;14.72;43.78;98822.47;6166205;28;125816;-65
2021/04/22 11:52:49;;;;;;;;;24.00;23.00;;;;;14.74;43.76;98842.88;6184812;28;126379;-65
2021/04/22 11:55:54;;;;;;;;;24.00;23.00;;;;;14.84;44.07;98830.53;6173951;28;127098;-65
2021/04/22 11:58:56;;;;;;;;;22.80;21.00;;;;;14.74;43.55;98829.31;6184042;28;125776;-64
2021/04/22 12:02:01;;;;;;;;;25.00;23.00;;;;;14.73;43.17;98829.56;6178601;28;127595;-67
2021/04/22 12:05:05;;;;;;;;;23.40;22.00;;;;;14.58;43.61;98835.56;6184594;28;126242;-66
2021/04/22 12:08:09;;;;;;;;;20.40;19.00;;;;;14.51;44.15;98821.38;6181988;28;125985;-65
2021/04/22 12:11:22;;;;;;;;;20.20;19.00;;;;;14.63;44.02;98838.38;6173438;28;127234;-65
2021/04/22 12:14:28;;;;;;;;;19.80;19.00;;;;;14.68;43.80;98822.16;6181449;28;126022;-66
2021/04/22 12:17:33;;;;;;;;;19.60;18.00;;;;;14.81;44.12;98818.25;6183649;28;126111;-65
2021/04/22 12:20:37;;;;;;;;;17.00;16.00;;;;;14.80;44.03;98816.63;6183110;28;125477;-66
2021/04/22 12:23:42;;;;;;;;;20.00;18.00;;;;;14.90;43.52;98807.81;6180361;28;126146;-65
2021/04/22 12:26:48;;;;;;;;;18.00;17.20;;;;;14.86;43.72;98809.34;6191492;28;124801;-66
2021/04/22 12:29:50;;;;;;;;;19.40;18.40;;;;;14.91;44.16;98815.69;6180290;28;124975;-65
2021/04/22 12:32:57;;;;;;;;;17.50;17.50;;;;;14.59;43.84;98769.41;6171820;28;128200;-66
2021/04/22 12:36:00;;;;;;;;;21.00;19.00;;;;;14.85;43.92;98805.03;6177981;28;126760;-65
2021/04/22 12:39:04;;;;;;;;;20.60;20.00;;;;;14.87;43.99;98808.28;6184882;28;126083;-66
2021/04/22 12:42:10;;;;;;;;;21.60;19.00;;;;;14.95;43.63;98806.00;6180724;28;126312;-66
2021/04/22 12:45:15;;;;;;;;;22.40;20.00;;;;;15.08;43.46;98789.31;6178549;28;125851;-65
2021/04/22 12:48:17;;;;;;;;;23.00;20.00;;;;;15.37;42.22;98800.78;6168906;28;126684;-66
2021/04/22 12:51:22;;;;;;;;;22.40;20.40;;;;;15.54;40.70;98795.31;6173216;28;126140;-66
2021/04/22 12:54:25;;;;;;;;;23.67;21.00;;;;;15.80;39.97;98788.19;6175463;28;124315;-67
2021/04/22 12:57:28;;;;;;;;;23.00;21.00;;;;;16.10;39.30;98793.09;6156966;28;124933;-67
2021/04/22 13:00:34;;;;;;;;;21.00;20.00;;;;;16.36;39.06;98787.59;6165525;28;126161;-66
2021/04/22 13:03:38;;;;;;;;;20.00;18.00;;;;;16.79;37.57;98782.97;6179635;28;126383;-66
2021/04/22 13:06:44;;;;;;;;;21.50;20.00;;;;;17.27;37.31;98798.16;6182997;28;127122;-68
2021/04/22 13:09:46;;;;;;;;;23.00;21.25;;;;;17.72;36.91;98798.31;6185089;28;126050;-66
2021/04/22 13:12:49;;;;;;;;;20.20;20.20;;;;;17.81;35.50;98793.16;6176773;28;126517;-65
2021/04/22 13:15:51;;;;;;;;;25.40;23.40;;;;;18.20;36.01;98788.00;6161668;28;125224;-66
2021/04/22 13:18:59;;;;;;;;;23.00;21.00;;;;;18.44;35.04;98788.25;6181772;28;126127;-65
2021/04/22 13:22:03;;;;;;;;;21.00;19.00;;;;;18.53;33.76;98787.44;6162839;28;124767;-65
2021/04/22 13:25:09;;;;;;;;;19.00;18.00;;;;;18.71;33.13;98783.31;6166281;28;125174;-66
2021/04/22 13:28:15;;;;;;;;;22.00;21.00;;;;;18.75;32.71;98791.78;6175345;28;124794;-66
2021/04/22 13:31:19;;;;;;;;;23.00;21.00;;;;;18.62;33.38;98771.31;6171080;28;127045;-65
2021/04/22 13:34:22;;;;;;;;;20.00;18.80;;;;;18.55;33.45;98776.25;6180617;28;125354;-65
2021/04/22 13:37:27;;;;;;;;;21.40;19.60;;;;;18.67;33.29;98774.03;6161050;28;126703;-65
2021/04/22 13:40:30;;;;;;;;;20.00;19.00;;;;;18.70;32.28;98773.50;6183884;28;125049;-64
2021/04/22 13:43:33;;;;;;;;;18.20;17.20;;;;;18.68;32.71;98759.28;6183610;28;125735;-65
2021/04/22 13:46:35;;;;;;;;;23.00;20.00;;;;;18.90;32.39;98758.94;6166164;28;125250;-65
2021/04/22 13:49:39;;;;;;;;;20.33;17.33;;;;;18.87;30.77;98756.75;6182458;28;126223;-65
2021/04/22 13:52:42;;;;;;;;;18.00;17.40;;;;;18.88;30.45;98745.56;6182408;28;124692;-66
2021/04/22 13:55:50;;;;;;;;;20.00;19.00;;;;;18.82;30.42;98737.66;6183877;28;127043;-67